sensor_id;sensor_type;location;lat;lon;timestamp;P1;durP1;ratioP1;P2;durP2;ratioP2
79025;SDS011;68425;44.716;37.756;2023-03-18T00:00:10;9.32;;;6.65;;
79025;SDS011;68425;44.716;37.756;2023-03-18T00:01:13;9.85;;;6.90;;
79025;SDS011;68425;44.716;37.756;2023-03-18T00:02:15;7.93;;;5.90;;
79025;SDS011;68425;44.716;37.756;2023-03-18T00:03:18;8.82;;;6.70;;
79025;SDS011;68425;44.716;37.756;2023-03-18T00:04:19;9.35;;;6.68;;
79025;SDS011;68425;44.716;37.756;2023-03-18T00:05:21;9.50;;;6.80;;
79025;SDS011;68425;44.716;37.756;2023-03-18T00:06:22;9.85;;;6.35;;
79025;SDS011;68425;44.716;37.756;2023-03-18T00:07:24;9.73;;;6.70;;
79025;SDS011;68425;44.716;37.756;2023-03-18T00:08:25;8.43;;;6.22;;
79025;SDS011;68425;44.716;37.756;2023-03-18T00:09:26;9.40;;;7.63;;
79025;SDS011;68425;44.716;37.756;2023-03-18T00:10:28;8.50;;;6.53;;
79025;SDS011;68425;44.716;37.756;2023-03-18T00:11:30;9.95;;;6.40;;
79025;SDS011;68425;44.716;37.756;2023-03-18T00:12:31;10.70;;;7.18;;
79025;SDS011;68425;44.716;37.756;2023-03-18T00:13:33;9.45;;;6.45;;
79025;SDS011;68425;44.716;37.756;2023-03-18T00:14:35;9.13;;;6.38;;
79025;SDS011;68425;44.716;37.756;2023-03-18T00:15:38;9.70;;;6.68;;
79025;SDS011;68425;44.716;37.756;2023-03-18T00:16:40;9.38;;;6.68;;
79025;SDS011;68425;44.716;37.756;2023-03-18T00:17:42;8.75;;;6.25;;
79025;SDS011;68425;44.716;37.756;2023-03-18T00:18:44;9.32;;;6.72;;
79025;SDS011;68425;44.716;37.756;2023-03-18T00:19:45;8.95;;;6.75;;
79025;SDS011;68425;44.716;37.756;2023-03-18T00:20:47;8.48;;;6.65;;
79025;SDS011;68425;44.716;37.756;2023-03-18T00:21:48;9.20;;;6.50;;
79025;SDS011;68425;44.716;37.756;2023-03-18T00:22:49;9.55;;;6.68;;
79025;SDS011;68425;44.716;37.756;2023-03-18T00:23:51;8.40;;;6.25;;
79025;SDS011;68425;44.716;37.756;2023-03-18T00:24:56;9.65;;;6.70;;
79025;SDS011;68425;44.716;37.756;2023-03-18T00:25:57;11.38;;;7.13;;
79025;SDS011;68425;44.716;37.756;2023-03-18T00:27:00;9.70;;;6.80;;
79025;SDS011;68425;44.716;37.756;2023-03-18T00:28:02;9.75;;;6.80;;
79025;SDS011;68425;44.716;37.756;2023-03-18T00:29:06;8.55;;;6.65;;
79025;SDS011;68425;44.716;37.756;2023-03-18T00:30:08;9.00;;;7.15;;
79025;SDS011;68425;44.716;37.756;2023-03-18T00:31:12;8.30;;;6.32;;
79025;SDS011;68425;44.716;37.756;2023-03-18T00:32:15;8.05;;;6.30;;
79025;SDS011;68425;44.716;37.756;2023-03-18T00:33:16;9.70;;;6.68;;
79025;SDS011;68425;44.716;37.756;2023-03-18T00:34:18;9.23;;;6.55;;
79025;SDS011;68425;44.716;37.756;2023-03-18T00:35:20;8.85;;;6.60;;
79025;SDS011;68425;44.716;37.756;2023-03-18T00:36:22;8.65;;;6.40;;
79025;SDS011;68425;44.716;37.756;2023-03-18T00:38:34;9.32;;;6.80;;
79025;SDS011;68425;44.716;37.756;2023-03-18T00:39:36;8.48;;;6.55;;
79025;SDS011;68425;44.716;37.756;2023-03-18T00:40:37;9.82;;;6.53;;
79025;SDS011;68425;44.716;37.756;2023-03-18T00:41:55;8.55;;;6.38;;
79025;SDS011;68425;44.716;37.756;2023-03-18T00:42:56;9.30;;;6.78;;
79025;SDS011;68425;44.716;37.756;2023-03-18T00:44:07;9.73;;;6.95;;
79025;SDS011;68425;44.716;37.756;2023-03-18T00:45:09;8.55;;;6.65;;
79025;SDS011;68425;44.716;37.756;2023-03-18T00:46:12;8.55;;;6.13;;
79025;SDS011;68425;44.716;37.756;2023-03-18T00:47:15;9.38;;;6.82;;
79025;SDS011;68425;44.716;37.756;2023-03-18T00:48:17;8.70;;;6.43;;
79025;SDS011;68425;44.716;37.756;2023-03-18T00:49:18;8.25;;;6.43;;
79025;SDS011;68425;44.716;37.756;2023-03-18T00:50:20;8.63;;;6.30;;
79025;SDS011;68425;44.716;37.756;2023-03-18T00:51:22;10.75;;;6.85;;
79025;SDS011;68425;44.716;37.756;2023-03-18T00:52:25;8.48;;;6.50;;
79025;SDS011;68425;44.716;37.756;2023-03-18T00:53:27;9.30;;;6.47;;
79025;SDS011;68425;44.716;37.756;2023-03-18T00:54:28;9.85;;;7.20;;
79025;SDS011;68425;44.716;37.756;2023-03-18T00:55:29;8.02;;;5.82;;
79025;SDS011;68425;44.716;37.756;2023-03-18T00:56:32;9.43;;;7.00;;
79025;SDS011;68425;44.716;37.756;2023-03-18T00:57:36;9.20;;;6.40;;
79025;SDS011;68425;44.716;37.756;2023-03-18T00:58:38;8.73;;;6.68;;
79025;SDS011;68425;44.716;37.756;2023-03-18T00:59:40;9.85;;;6.70;;
79025;SDS011;68425;44.716;37.756;2023-03-18T01:00:42;8.35;;;6.53;;
79025;SDS011;68425;44.716;37.756;2023-03-18T01:01:43;8.25;;;5.57;;
79025;SDS011;68425;44.716;37.756;2023-03-18T01:02:45;8.98;;;6.80;;
79025;SDS011;68425;44.716;37.756;2023-03-18T01:03:49;9.32;;;6.53;;
79025;SDS011;68425;44.716;37.756;2023-03-18T01:04:50;8.85;;;6.50;;
79025;SDS011;68425;44.716;37.756;2023-03-18T01:05:52;9.25;;;7.13;;
79025;SDS011;68425;44.716;37.756;2023-03-18T01:06:54;10.63;;;6.80;;
79025;SDS011;68425;44.716;37.756;2023-03-18T01:07:55;9.80;;;6.47;;
79025;SDS011;68425;44.716;37.756;2023-03-18T01:08:58;8.82;;;6.75;;
79025;SDS011;68425;44.716;37.756;2023-03-18T01:10:01;9.13;;;6.72;;
79025;SDS011;68425;44.716;37.756;2023-03-18T01:11:03;8.32;;;6.85;;
79025;SDS011;68425;44.716;37.756;2023-03-18T01:12:07;8.60;;;6.47;;
79025;SDS011;68425;44.716;37.756;2023-03-18T01:13:09;8.85;;;6.50;;
79025;SDS011;68425;44.716;37.756;2023-03-18T01:14:11;8.80;;;6.75;;
79025;SDS011;68425;44.716;37.756;2023-03-18T01:15:13;9.98;;;6.72;;
79025;SDS011;68425;44.716;37.756;2023-03-18T01:16:17;8.75;;;6.50;;
79025;SDS011;68425;44.716;37.756;2023-03-18T01:17:20;9.75;;;6.25;;
79025;SDS011;68425;44.716;37.756;2023-03-18T01:18:22;9.75;;;7.00;;
79025;SDS011;68425;44.716;37.756;2023-03-18T01:19:24;10.10;;;6.90;;
79025;SDS011;68425;44.716;37.756;2023-03-18T01:20:26;9.40;;;6.88;;
79025;SDS011;68425;44.716;37.756;2023-03-18T01:21:30;9.82;;;6.78;;
79025;SDS011;68425;44.716;37.756;2023-03-18T01:22:34;9.75;;;6.18;;
79025;SDS011;68425;44.716;37.756;2023-03-18T01:23:36;8.60;;;6.50;;
79025;SDS011;68425;44.716;37.756;2023-03-18T01:24:37;9.93;;;6.65;;
79025;SDS011;68425;44.716;37.756;2023-03-18T01:25:40;9.23;;;6.75;;
79025;SDS011;68425;44.716;37.756;2023-03-18T01:26:43;8.32;;;6.35;;
79025;SDS011;68425;44.716;37.756;2023-03-18T01:27:44;10.18;;;6.88;;
79025;SDS011;68425;44.716;37.756;2023-03-18T01:28:46;9.88;;;6.60;;
79025;SDS011;68425;44.716;37.756;2023-03-18T01:29:47;10.05;;;6.57;;
79025;SDS011;68425;44.716;37.756;2023-03-18T01:30:54;10.23;;;6.95;;
79025;SDS011;68425;44.716;37.756;2023-03-18T01:31:57;10.07;;;7.10;;
79025;SDS011;68425;44.716;37.756;2023-03-18T01:33:00;8.88;;;6.60;;
79025;SDS011;68425;44.716;37.756;2023-03-18T01:34:04;9.27;;;6.45;;
79025;SDS011;68425;44.716;37.756;2023-03-18T01:35:15;10.88;;;7.15;;
79025;SDS011;68425;44.716;37.756;2023-03-18T01:36:20;8.27;;;6.10;;
79025;SDS011;68425;44.716;37.756;2023-03-18T01:37:34;8.85;;;6.25;;
79025;SDS011;68425;44.716;37.756;2023-03-18T01:38:46;10.32;;;7.10;;
79025;SDS011;68425;44.716;37.756;2023-03-18T01:39:48;8.60;;;6.68;;
79025;SDS011;68425;44.716;37.756;2023-03-18T01:40:55;9.13;;;6.45;;
79025;SDS011;68425;44.716;37.756;2023-03-18T01:41:58;9.57;;;6.60;;
79025;SDS011;68425;44.716;37.756;2023-03-18T01:44:16;9.02;;;6.57;;
79025;SDS011;68425;44.716;37.756;2023-03-18T01:45:23;8.80;;;6.18;;
79025;SDS011;68425;44.716;37.756;2023-03-18T01:47:38;9.57;;;6.50;;
79025;SDS011;68425;44.716;37.756;2023-03-18T01:48:40;10.45;;;6.18;;
79025;SDS011;68425;44.716;37.756;2023-03-18T01:49:46;11.13;;;6.45;;
79025;SDS011;68425;44.716;37.756;2023-03-18T01:50:53;10.93;;;7.32;;
79025;SDS011;68425;44.716;37.756;2023-03-18T01:53:09;8.27;;;6.50;;
79025;SDS011;68425;44.716;37.756;2023-03-18T01:54:13;8.50;;;6.68;;
79025;SDS011;68425;44.716;37.756;2023-03-18T01:55:19;9.00;;;6.65;;
79025;SDS011;68425;44.716;37.756;2023-03-18T01:56:25;7.95;;;6.35;;
79025;SDS011;68425;44.716;37.756;2023-03-18T01:57:27;9.05;;;6.65;;
79025;SDS011;68425;44.716;37.756;2023-03-18T01:59:49;9.13;;;6.40;;
79025;SDS011;68425;44.716;37.756;2023-03-18T02:00:54;8.35;;;5.93;;
79025;SDS011;68425;44.716;37.756;2023-03-18T02:02:03;9.93;;;6.57;;
79025;SDS011;68425;44.716;37.756;2023-03-18T02:03:08;7.80;;;6.22;;
79025;SDS011;68425;44.716;37.756;2023-03-18T02:04:09;9.45;;;6.65;;
79025;SDS011;68425;44.716;37.756;2023-03-18T02:05:19;11.38;;;7.10;;
79025;SDS011;68425;44.716;37.756;2023-03-18T02:06:23;9.57;;;6.30;;
79025;SDS011;68425;44.716;37.756;2023-03-18T02:07:33;8.52;;;6.05;;
79025;SDS011;68425;44.716;37.756;2023-03-18T02:08:36;9.20;;;6.18;;
79025;SDS011;68425;44.716;37.756;2023-03-18T02:09:39;11.48;;;7.32;;
79025;SDS011;68425;44.716;37.756;2023-03-18T02:10:40;9.30;;;6.03;;
79025;SDS011;68425;44.716;37.756;2023-03-18T02:11:46;9.63;;;6.97;;
79025;SDS011;68425;44.716;37.756;2023-03-18T02:12:58;10.95;;;6.75;;
79025;SDS011;68425;44.716;37.756;2023-03-18T02:14:08;8.73;;;6.28;;
79025;SDS011;68425;44.716;37.756;2023-03-18T02:15:13;10.10;;;6.25;;
79025;SDS011;68425;44.716;37.756;2023-03-18T02:16:22;9.85;;;6.40;;
79025;SDS011;68425;44.716;37.756;2023-03-18T02:17:31;9.00;;;6.45;;
79025;SDS011;68425;44.716;37.756;2023-03-18T02:18:36;11.13;;;6.78;;
79025;SDS011;68425;44.716;37.756;2023-03-18T02:22:44;11.50;;;7.00;;
79025;SDS011;68425;44.716;37.756;2023-03-18T02:24:02;12.13;;;7.10;;
79025;SDS011;68425;44.716;37.756;2023-03-18T02:27:02;11.05;;;7.07;;
79025;SDS011;68425;44.716;37.756;2023-03-18T02:28:24;10.80;;;8.05;;
79025;SDS011;68425;44.716;37.756;2023-03-18T02:29:30;12.02;;;7.93;;
79025;SDS011;68425;44.716;37.756;2023-03-18T02:30:39;11.98;;;7.93;;
79025;SDS011;68425;44.716;37.756;2023-03-18T02:31:48;11.98;;;7.68;;
79025;SDS011;68425;44.716;37.756;2023-03-18T02:32:55;12.93;;;7.97;;
79025;SDS011;68425;44.716;37.756;2023-03-18T02:33:59;11.40;;;7.45;;
79025;SDS011;68425;44.716;37.756;2023-03-18T02:35:02;10.65;;;8.10;;
79025;SDS011;68425;44.716;37.756;2023-03-18T02:36:19;12.45;;;8.52;;
79025;SDS011;68425;44.716;37.756;2023-03-18T02:37:24;10.18;;;7.95;;
79025;SDS011;68425;44.716;37.756;2023-03-18T02:38:25;14.00;;;8.05;;
79025;SDS011;68425;44.716;37.756;2023-03-18T02:39:27;10.90;;;8.15;;
79025;SDS011;68425;44.716;37.756;2023-03-18T02:40:36;11.18;;;7.88;;
79025;SDS011;68425;44.716;37.756;2023-03-18T02:41:46;11.70;;;8.30;;
79025;SDS011;68425;44.716;37.756;2023-03-18T02:42:48;11.80;;;7.40;;
79025;SDS011;68425;44.716;37.756;2023-03-18T02:43:49;12.65;;;7.75;;
79025;SDS011;68425;44.716;37.756;2023-03-18T02:44:51;10.10;;;7.60;;
79025;SDS011;68425;44.716;37.756;2023-03-18T02:47:56;11.18;;;7.97;;
79025;SDS011;68425;44.716;37.756;2023-03-18T02:49:00;13.48;;;8.43;;
79025;SDS011;68425;44.716;37.756;2023-03-18T02:50:05;9.75;;;8.07;;
79025;SDS011;68425;44.716;37.756;2023-03-18T02:51:08;13.63;;;8.63;;
79025;SDS011;68425;44.716;37.756;2023-03-18T02:52:10;11.43;;;7.97;;
79025;SDS011;68425;44.716;37.756;2023-03-18T02:53:12;11.73;;;8.02;;
79025;SDS011;68425;44.716;37.756;2023-03-18T02:54:18;11.80;;;8.15;;
79025;SDS011;68425;44.716;37.756;2023-03-18T02:55:22;12.00;;;8.82;;
79025;SDS011;68425;44.716;37.756;2023-03-18T02:56:24;12.80;;;8.13;;
79025;SDS011;68425;44.716;37.756;2023-03-18T02:57:26;13.25;;;8.23;;
79025;SDS011;68425;44.716;37.756;2023-03-18T02:58:27;13.95;;;8.77;;
79025;SDS011;68425;44.716;37.756;2023-03-18T02:59:32;12.38;;;8.10;;
79025;SDS011;68425;44.716;37.756;2023-03-18T03:00:34;11.82;;;8.07;;
79025;SDS011;68425;44.716;37.756;2023-03-18T03:01:36;11.63;;;8.55;;
79025;SDS011;68425;44.716;37.756;2023-03-18T03:02:38;12.07;;;8.73;;
79025;SDS011;68425;44.716;37.756;2023-03-18T03:03:39;12.27;;;8.60;;
79025;SDS011;68425;44.716;37.756;2023-03-18T03:04:43;11.30;;;8.30;;
79025;SDS011;68425;44.716;37.756;2023-03-18T03:05:45;11.52;;;7.90;;
79025;SDS011;68425;44.716;37.756;2023-03-18T03:06:47;12.95;;;8.50;;
79025;SDS011;68425;44.716;37.756;2023-03-18T03:07:52;13.45;;;9.10;;
79025;SDS011;68425;44.716;37.756;2023-03-18T03:08:54;11.70;;;8.02;;
79025;SDS011;68425;44.716;37.756;2023-03-18T03:09:56;11.25;;;8.60;;
79025;SDS011;68425;44.716;37.756;2023-03-18T03:10:58;10.40;;;8.15;;
79025;SDS011;68425;44.716;37.756;2023-03-18T03:12:02;12.43;;;8.95;;
79025;SDS011;68425;44.716;37.756;2023-03-18T03:13:04;12.55;;;9.05;;
79025;SDS011;68425;44.716;37.756;2023-03-18T03:14:07;10.85;;;8.00;;
79025;SDS011;68425;44.716;37.756;2023-03-18T03:15:09;11.98;;;8.27;;
79025;SDS011;68425;44.716;37.756;2023-03-18T03:16:17;12.98;;;8.30;;
79025;SDS011;68425;44.716;37.756;2023-03-18T03:17:19;12.23;;;9.23;;
79025;SDS011;68425;44.716;37.756;2023-03-18T03:18:21;10.85;;;7.88;;
79025;SDS011;68425;44.716;37.756;2023-03-18T03:19:23;12.65;;;9.15;;
79025;SDS011;68425;44.716;37.756;2023-03-18T03:20:24;12.60;;;8.40;;
79025;SDS011;68425;44.716;37.756;2023-03-18T03:21:25;12.82;;;8.60;;
79025;SDS011;68425;44.716;37.756;2023-03-18T03:22:27;11.52;;;7.97;;
79025;SDS011;68425;44.716;37.756;2023-03-18T03:23:30;12.52;;;8.15;;
79025;SDS011;68425;44.716;37.756;2023-03-18T03:24:33;11.82;;;7.90;;
79025;SDS011;68425;44.716;37.756;2023-03-18T03:25:34;12.95;;;8.02;;
79025;SDS011;68425;44.716;37.756;2023-03-18T03:26:39;11.48;;;8.20;;
79025;SDS011;68425;44.716;37.756;2023-03-18T03:27:41;13.13;;;8.23;;
79025;SDS011;68425;44.716;37.756;2023-03-18T03:28:43;13.07;;;8.60;;
79025;SDS011;68425;44.716;37.756;2023-03-18T03:30:48;14.15;;;8.57;;
79025;SDS011;68425;44.716;37.756;2023-03-18T03:31:50;12.82;;;8.23;;
79025;SDS011;68425;44.716;37.756;2023-03-18T03:32:54;12.48;;;8.77;;
79025;SDS011;68425;44.716;37.756;2023-03-18T03:33:55;13.35;;;8.75;;
79025;SDS011;68425;44.716;37.756;2023-03-18T03:34:57;11.80;;;8.40;;
79025;SDS011;68425;44.716;37.756;2023-03-18T03:35:58;14.25;;;8.80;;
79025;SDS011;68425;44.716;37.756;2023-03-18T03:37:04;14.40;;;8.98;;
79025;SDS011;68425;44.716;37.756;2023-03-18T03:38:06;13.50;;;8.30;;
79025;SDS011;68425;44.716;37.756;2023-03-18T03:39:09;13.02;;;8.55;;
79025;SDS011;68425;44.716;37.756;2023-03-18T03:40:11;13.27;;;8.60;;
79025;SDS011;68425;44.716;37.756;2023-03-18T03:41:15;12.68;;;8.57;;
79025;SDS011;68425;44.716;37.756;2023-03-18T03:42:17;12.00;;;8.50;;
79025;SDS011;68425;44.716;37.756;2023-03-18T03:43:19;12.77;;;8.52;;
79025;SDS011;68425;44.716;37.756;2023-03-18T03:44:20;12.52;;;8.13;;
79025;SDS011;68425;44.716;37.756;2023-03-18T03:45:23;12.15;;;8.73;;
79025;SDS011;68425;44.716;37.756;2023-03-18T03:46:27;14.02;;;9.45;;
79025;SDS011;68425;44.716;37.756;2023-03-18T03:47:30;12.30;;;8.93;;
79025;SDS011;68425;44.716;37.756;2023-03-18T03:48:32;13.80;;;9.77;;
79025;SDS011;68425;44.716;37.756;2023-03-18T03:49:34;11.32;;;9.23;;
79025;SDS011;68425;44.716;37.756;2023-03-18T03:50:35;11.98;;;8.68;;
79025;SDS011;68425;44.716;37.756;2023-03-18T03:51:41;12.23;;;8.60;;
79025;SDS011;68425;44.716;37.756;2023-03-18T03:52:43;13.88;;;9.10;;
79025;SDS011;68425;44.716;37.756;2023-03-18T03:53:45;12.35;;;8.45;;
79025;SDS011;68425;44.716;37.756;2023-03-18T03:54:47;13.65;;;9.23;;
79025;SDS011;68425;44.716;37.756;2023-03-18T03:55:48;12.63;;;8.88;;
79025;SDS011;68425;44.716;37.756;2023-03-18T03:56:50;14.77;;;9.80;;
79025;SDS011;68425;44.716;37.756;2023-03-18T03:57:53;13.43;;;9.40;;
79025;SDS011;68425;44.716;37.756;2023-03-18T03:58:55;16.05;;;9.55;;
79025;SDS011;68425;44.716;37.756;2023-03-18T04:00:00;14.07;;;9.07;;
79025;SDS011;68425;44.716;37.756;2023-03-18T04:01:31;14.80;;;10.13;;
79025;SDS011;68425;44.716;37.756;2023-03-18T04:02:33;13.13;;;9.15;;
79025;SDS011;68425;44.716;37.756;2023-03-18T04:03:34;13.23;;;9.27;;
79025;SDS011;68425;44.716;37.756;2023-03-18T04:04:39;15.02;;;9.40;;
79025;SDS011;68425;44.716;37.756;2023-03-18T04:06:44;12.98;;;9.30;;
79025;SDS011;68425;44.716;37.756;2023-03-18T04:07:50;12.38;;;8.95;;
79025;SDS011;68425;44.716;37.756;2023-03-18T04:08:54;11.57;;;8.90;;
79025;SDS011;68425;44.716;37.756;2023-03-18T04:09:56;12.57;;;9.32;;
79025;SDS011;68425;44.716;37.756;2023-03-18T04:10:57;13.55;;;8.82;;
79025;SDS011;68425;44.716;37.756;2023-03-18T04:11:59;13.73;;;9.13;;
79025;SDS011;68425;44.716;37.756;2023-03-18T04:13:01;14.20;;;9.00;;
79025;SDS011;68425;44.716;37.756;2023-03-18T04:14:03;15.13;;;9.55;;
79025;SDS011;68425;44.716;37.756;2023-03-18T04:15:05;14.25;;;9.68;;
79025;SDS011;68425;44.716;37.756;2023-03-18T04:16:07;13.95;;;8.95;;
79025;SDS011;68425;44.716;37.756;2023-03-18T04:17:09;12.38;;;8.18;;
79025;SDS011;68425;44.716;37.756;2023-03-18T04:18:11;11.50;;;8.07;;
79025;SDS011;68425;44.716;37.756;2023-03-18T04:19:13;12.00;;;8.38;;
79025;SDS011;68425;44.716;37.756;2023-03-18T04:20:15;14.20;;;9.55;;
79025;SDS011;68425;44.716;37.756;2023-03-18T04:21:17;13.23;;;8.60;;
79025;SDS011;68425;44.716;37.756;2023-03-18T04:22:23;15.65;;;9.60;;
79025;SDS011;68425;44.716;37.756;2023-03-18T04:23:25;13.38;;;9.18;;
79025;SDS011;68425;44.716;37.756;2023-03-18T04:24:26;12.70;;;8.85;;
79025;SDS011;68425;44.716;37.756;2023-03-18T04:25:28;13.20;;;8.52;;
79025;SDS011;68425;44.716;37.756;2023-03-18T04:26:30;13.43;;;8.45;;
79025;SDS011;68425;44.716;37.756;2023-03-18T04:27:35;14.73;;;9.10;;
79025;SDS011;68425;44.716;37.756;2023-03-18T04:28:41;12.88;;;8.30;;
79025;SDS011;68425;44.716;37.756;2023-03-18T04:29:45;13.35;;;9.15;;
79025;SDS011;68425;44.716;37.756;2023-03-18T04:30:47;13.25;;;8.63;;
79025;SDS011;68425;44.716;37.756;2023-03-18T04:31:51;12.75;;;8.48;;
79025;SDS011;68425;44.716;37.756;2023-03-18T04:32:53;14.15;;;8.90;;
79025;SDS011;68425;44.716;37.756;2023-03-18T04:33:55;15.32;;;9.30;;
79025;SDS011;68425;44.716;37.756;2023-03-18T04:34:58;15.00;;;8.98;;
79025;SDS011;68425;44.716;37.756;2023-03-18T04:35:59;14.85;;;9.15;;
79025;SDS011;68425;44.716;37.756;2023-03-18T04:37:01;15.27;;;8.80;;
79025;SDS011;68425;44.716;37.756;2023-03-18T04:38:04;12.63;;;8.38;;
79025;SDS011;68425;44.716;37.756;2023-03-18T04:39:06;13.75;;;9.20;;
79025;SDS011;68425;44.716;37.756;2023-03-18T04:40:10;15.10;;;9.02;;
79025;SDS011;68425;44.716;37.756;2023-03-18T04:41:12;15.27;;;8.80;;
79025;SDS011;68425;44.716;37.756;2023-03-18T04:42:13;13.02;;;8.70;;
79025;SDS011;68425;44.716;37.756;2023-03-18T04:43:18;14.45;;;9.13;;
79025;SDS011;68425;44.716;37.756;2023-03-18T04:44:22;16.15;;;9.00;;
79025;SDS011;68425;44.716;37.756;2023-03-18T04:45:26;12.95;;;8.30;;
79025;SDS011;68425;44.716;37.756;2023-03-18T04:46:30;14.65;;;8.57;;
79025;SDS011;68425;44.716;37.756;2023-03-18T04:47:32;14.80;;;9.02;;
79025;SDS011;68425;44.716;37.756;2023-03-18T04:48:36;12.73;;;9.20;;
79025;SDS011;68425;44.716;37.756;2023-03-18T04:49:39;10.40;;;8.35;;
79025;SDS011;68425;44.716;37.756;2023-03-18T04:50:40;12.50;;;8.85;;
79025;SDS011;68425;44.716;37.756;2023-03-18T04:51:46;12.52;;;9.27;;
79025;SDS011;68425;44.716;37.756;2023-03-18T04:53:03;15.30;;;8.70;;
79025;SDS011;68425;44.716;37.756;2023-03-18T04:54:05;13.20;;;8.90;;
79025;SDS011;68425;44.716;37.756;2023-03-18T04:55:07;14.10;;;8.88;;
79025;SDS011;68425;44.716;37.756;2023-03-18T04:56:12;13.10;;;8.32;;
79025;SDS011;68425;44.716;37.756;2023-03-18T04:57:22;14.00;;;8.68;;
79025;SDS011;68425;44.716;37.756;2023-03-18T04:58:28;12.00;;;8.90;;
79025;SDS011;68425;44.716;37.756;2023-03-18T04:59:55;13.10;;;8.50;;
79025;SDS011;68425;44.716;37.756;2023-03-18T05:00:58;13.32;;;8.30;;
79025;SDS011;68425;44.716;37.756;2023-03-18T05:02:07;15.05;;;8.77;;
79025;SDS011;68425;44.716;37.756;2023-03-18T05:03:16;14.90;;;8.75;;
79025;SDS011;68425;44.716;37.756;2023-03-18T05:04:18;12.65;;;8.73;;
79025;SDS011;68425;44.716;37.756;2023-03-18T05:05:24;14.48;;;8.27;;
79025;SDS011;68425;44.716;37.756;2023-03-18T05:06:27;12.55;;;8.38;;
79025;SDS011;68425;44.716;37.756;2023-03-18T05:07:39;15.57;;;9.18;;
79025;SDS011;68425;44.716;37.756;2023-03-18T05:08:45;12.55;;;8.80;;
79025;SDS011;68425;44.716;37.756;2023-03-18T05:09:47;14.05;;;9.27;;
79025;SDS011;68425;44.716;37.756;2023-03-18T05:10:49;14.40;;;9.00;;
79025;SDS011;68425;44.716;37.756;2023-03-18T05:11:52;13.85;;;8.45;;
79025;SDS011;68425;44.716;37.756;2023-03-18T05:13:01;12.07;;;7.97;;
79025;SDS011;68425;44.716;37.756;2023-03-18T05:14:06;13.73;;;8.70;;
79025;SDS011;68425;44.716;37.756;2023-03-18T05:15:14;13.30;;;8.38;;
79025;SDS011;68425;44.716;37.756;2023-03-18T05:16:22;13.57;;;8.98;;
79025;SDS011;68425;44.716;37.756;2023-03-18T05:17:24;14.65;;;8.95;;
79025;SDS011;68425;44.716;37.756;2023-03-18T05:18:32;12.15;;;8.02;;
79025;SDS011;68425;44.716;37.756;2023-03-18T05:19:36;13.10;;;9.05;;
79025;SDS011;68425;44.716;37.756;2023-03-18T05:20:48;12.02;;;8.65;;
79025;SDS011;68425;44.716;37.756;2023-03-18T05:21:51;12.00;;;8.25;;
79025;SDS011;68425;44.716;37.756;2023-03-18T05:22:53;13.38;;;8.68;;
79025;SDS011;68425;44.716;37.756;2023-03-18T05:24:17;12.13;;;7.85;;
79025;SDS011;68425;44.716;37.756;2023-03-18T05:25:19;13.90;;;7.88;;
79025;SDS011;68425;44.716;37.756;2023-03-18T05:26:21;11.93;;;8.73;;
79025;SDS011;68425;44.716;37.756;2023-03-18T05:27:24;12.70;;;8.68;;
79025;SDS011;68425;44.716;37.756;2023-03-18T05:28:34;14.90;;;8.82;;
79025;SDS011;68425;44.716;37.756;2023-03-18T05:29:56;14.35;;;8.70;;
79025;SDS011;68425;44.716;37.756;2023-03-18T05:31:12;14.40;;;8.30;;
79025;SDS011;68425;44.716;37.756;2023-03-18T05:32:15;11.18;;;7.75;;
79025;SDS011;68425;44.716;37.756;2023-03-18T05:33:16;12.25;;;8.45;;
79025;SDS011;68425;44.716;37.756;2023-03-18T05:34:28;12.00;;;7.95;;
79025;SDS011;68425;44.716;37.756;2023-03-18T05:35:29;12.95;;;8.38;;
79025;SDS011;68425;44.716;37.756;2023-03-18T05:36:31;12.90;;;8.27;;
79025;SDS011;68425;44.716;37.756;2023-03-18T05:37:37;12.73;;;8.82;;
79025;SDS011;68425;44.716;37.756;2023-03-18T05:38:41;14.02;;;8.40;;
79025;SDS011;68425;44.716;37.756;2023-03-18T05:39:42;15.52;;;8.80;;
79025;SDS011;68425;44.716;37.756;2023-03-18T05:40:46;13.68;;;8.43;;
79025;SDS011;68425;44.716;37.756;2023-03-18T05:42:00;11.77;;;8.23;;
79025;SDS011;68425;44.716;37.756;2023-03-18T05:43:03;14.18;;;8.40;;
79025;SDS011;68425;44.716;37.756;2023-03-18T05:44:23;12.90;;;8.40;;
79025;SDS011;68425;44.716;37.756;2023-03-18T05:45:25;12.63;;;8.40;;
79025;SDS011;68425;44.716;37.756;2023-03-18T05:46:29;11.95;;;7.97;;
79025;SDS011;68425;44.716;37.756;2023-03-18T05:47:37;12.85;;;8.40;;
79025;SDS011;68425;44.716;37.756;2023-03-18T05:48:43;14.30;;;8.75;;
79025;SDS011;68425;44.716;37.756;2023-03-18T05:49:44;11.00;;;8.27;;
79025;SDS011;68425;44.716;37.756;2023-03-18T05:50:51;13.43;;;7.95;;
79025;SDS011;68425;44.716;37.756;2023-03-18T05:51:56;12.75;;;8.10;;
79025;SDS011;68425;44.716;37.756;2023-03-18T05:53:10;12.18;;;8.02;;
79025;SDS011;68425;44.716;37.756;2023-03-18T05:54:14;14.02;;;8.18;;
79025;SDS011;68425;44.716;37.756;2023-03-18T05:55:18;12.15;;;7.55;;
79025;SDS011;68425;44.716;37.756;2023-03-18T05:56:19;12.88;;;8.23;;
79025;SDS011;68425;44.716;37.756;2023-03-18T05:57:25;13.30;;;7.90;;
79025;SDS011;68425;44.716;37.756;2023-03-18T05:58:32;12.68;;;7.93;;
79025;SDS011;68425;44.716;37.756;2023-03-18T05:59:56;11.82;;;8.15;;
79025;SDS011;68425;44.716;37.756;2023-03-18T06:00:58;12.43;;;7.80;;
79025;SDS011;68425;44.716;37.756;2023-03-18T06:02:00;11.48;;;8.10;;
79025;SDS011;68425;44.716;37.756;2023-03-18T06:03:02;14.48;;;8.50;;
79025;SDS011;68425;44.716;37.756;2023-03-18T06:04:04;12.75;;;8.38;;
79025;SDS011;68425;44.716;37.756;2023-03-18T06:05:09;11.88;;;8.10;;
79025;SDS011;68425;44.716;37.756;2023-03-18T06:06:10;11.63;;;7.85;;
79025;SDS011;68425;44.716;37.756;2023-03-18T06:07:13;11.68;;;7.55;;
79025;SDS011;68425;44.716;37.756;2023-03-18T06:08:15;13.68;;;8.75;;
79025;SDS011;68425;44.716;37.756;2023-03-18T06:09:17;11.52;;;8.48;;
79025;SDS011;68425;44.716;37.756;2023-03-18T06:10:20;13.77;;;7.95;;
79025;SDS011;68425;44.716;37.756;2023-03-18T06:11:23;12.48;;;8.13;;
79025;SDS011;68425;44.716;37.756;2023-03-18T06:12:25;11.20;;;8.07;;
79025;SDS011;68425;44.716;37.756;2023-03-18T06:13:28;12.57;;;7.78;;
79025;SDS011;68425;44.716;37.756;2023-03-18T06:14:30;11.93;;;7.60;;
79025;SDS011;68425;44.716;37.756;2023-03-18T06:15:35;11.30;;;7.45;;
79025;SDS011;68425;44.716;37.756;2023-03-18T06:16:38;10.52;;;8.25;;
79025;SDS011;68425;44.716;37.756;2023-03-18T06:17:40;13.73;;;7.75;;
79025;SDS011;68425;44.716;37.756;2023-03-18T06:18:42;14.07;;;8.10;;
79025;SDS011;68425;44.716;37.756;2023-03-18T06:19:43;12.00;;;7.72;;
79025;SDS011;68425;44.716;37.756;2023-03-18T06:20:45;12.38;;;7.38;;
79025;SDS011;68425;44.716;37.756;2023-03-18T06:21:47;12.63;;;7.82;;
79025;SDS011;68425;44.716;37.756;2023-03-18T06:22:48;11.38;;;8.00;;
79025;SDS011;68425;44.716;37.756;2023-03-18T06:23:50;12.75;;;7.40;;
79025;SDS011;68425;44.716;37.756;2023-03-18T06:24:52;12.05;;;7.47;;
79025;SDS011;68425;44.716;37.756;2023-03-18T06:25:53;14.18;;;7.65;;
79025;SDS011;68425;44.716;37.756;2023-03-18T06:27:01;15.45;;;7.95;;
79025;SDS011;68425;44.716;37.756;2023-03-18T06:28:03;13.07;;;7.38;;
79025;SDS011;68425;44.716;37.756;2023-03-18T06:29:06;14.27;;;8.38;;
79025;SDS011;68425;44.716;37.756;2023-03-18T06:30:08;12.65;;;8.30;;
79025;SDS011;68425;44.716;37.756;2023-03-18T06:32:13;11.07;;;7.38;;